createdAt,value
2018-04-24T00:01:17.224Z,3.67
2018-04-24T00:04:20.502Z,3.90
2018-04-24T00:07:23.768Z,4.00
2018-04-24T00:10:27.041Z,3.83
2018-04-24T00:13:30.878Z,3.83
2018-04-24T00:16:35.145Z,3.70
2018-04-24T00:19:38.460Z,3.70
2018-04-24T00:22:42.521Z,3.70
2018-04-24T00:25:45.794Z,3.80
2018-04-24T00:28:49.082Z,3.50
2018-04-24T00:31:52.337Z,3.13
2018-04-24T00:34:55.608Z,3.80
2018-04-24T00:37:58.874Z,3.20
2018-04-24T00:41:02.123Z,3.23
2018-04-24T00:44:05.395Z,3.80
2018-04-24T00:47:09.481Z,3.23
2018-04-24T00:50:12.744Z,3.00
2018-04-24T00:53:33.728Z,3.77
2018-04-24T00:56:36.923Z,3.07
2018-04-24T00:59:40.179Z,3.03
2018-04-24T01:02:44.191Z,3.33
2018-04-24T01:05:48.209Z,3.27
2018-04-24T01:08:51.476Z,3.57
2018-04-24T01:11:54.741Z,2.93
2018-04-24T01:14:58.005Z,3.33
2018-04-24T01:18:01.267Z,2.93
2018-04-24T01:21:04.531Z,3.00
2018-04-24T01:24:09.809Z,2.67
2018-04-24T01:27:13.096Z,2.83
2018-04-24T01:30:16.351Z,2.50
2018-04-24T01:33:19.647Z,2.23
2018-04-24T01:36:22.904Z,2.77
2018-04-24T01:39:26.980Z,2.37
2018-04-24T01:42:31.913Z,2.67
2018-04-24T01:45:35.184Z,2.37
2018-04-24T01:48:38.464Z,2.20
2018-04-24T01:51:42.500Z,1.73
2018-04-24T01:54:45.776Z,2.33
2018-04-24T01:57:49.821Z,2.27
2018-04-24T02:00:53.094Z,1.80
2018-04-24T02:03:59.443Z,2.10
2018-04-24T02:07:02.693Z,1.53
2018-04-24T02:10:05.957Z,1.90
2018-04-24T02:13:10.121Z,1.80
2018-04-24T02:16:13.394Z,2.10
2018-04-24T02:19:17.446Z,2.20
2018-04-24T02:22:20.698Z,1.80
2018-04-24T02:25:23.966Z,1.77
2018-04-24T02:28:27.213Z,1.63
2018-04-24T02:31:30.474Z,2.20
2018-04-24T02:34:34.511Z,2.20
2018-04-24T02:37:37.762Z,2.27
2018-04-24T02:40:41.026Z,2.13
2018-04-24T02:43:44.286Z,2.17
2018-04-24T02:46:47.543Z,1.97
2018-04-24T02:49:50.813Z,2.30
2018-04-24T02:52:55.930Z,1.68
2018-04-24T02:55:59.572Z,1.90
2018-04-24T02:59:02.876Z,1.67
2018-04-24T03:02:06.226Z,1.90
2018-04-24T03:05:09.534Z,1.93
2018-04-24T03:08:16.428Z,2.30
2018-04-24T03:11:19.744Z,2.40
2018-04-24T03:14:23.266Z,2.07
2018-04-24T03:17:26.532Z,2.47
2018-04-24T03:20:29.896Z,2.57
2018-04-24T03:23:33.926Z,2.42
2018-04-24T03:26:37.193Z,2.73
2018-04-24T03:29:41.213Z,2.37
2018-04-24T03:32:45.243Z,2.23
2018-04-24T03:35:48.527Z,2.10
2018-04-24T03:38:52.558Z,2.83
2018-04-24T03:41:55.815Z,2.50
2018-04-24T03:44:59.088Z,2.67
2018-04-24T03:48:02.360Z,2.23
2018-04-24T03:51:05.639Z,2.23
2018-04-24T03:54:08.925Z,2.57
2018-04-24T03:57:12.429Z,2.60
2018-04-24T04:00:16.466Z,2.37
2018-04-24T04:03:19.755Z,2.43
2018-04-24T04:06:23.778Z,2.60
2018-04-24T04:09:27.062Z,2.60
2018-04-24T04:12:31.132Z,3.13
2018-04-24T04:15:34.404Z,3.13
2018-04-24T04:18:56.986Z,2.77
2018-04-24T04:25:41.000Z,3.23
2018-04-24T04:28:45.074Z,2.83
2018-04-24T04:31:48.343Z,2.93
2018-04-24T04:34:51.940Z,3.17
2018-04-24T04:37:55.260Z,3.60
2018-04-24T04:40:58.625Z,4.03
2018-04-24T04:44:01.970Z,3.10
2018-04-24T04:47:05.423Z,3.30
2018-04-24T04:50:08.709Z,3.30
2018-04-24T04:53:13.885Z,3.40
2018-04-24T04:56:18.646Z,3.60
2018-04-24T04:59:21.947Z,3.83
2018-04-24T05:02:25.369Z,3.83
2018-04-24T05:05:28.683Z,3.50
2018-04-24T05:08:32.739Z,3.47
2018-04-24T05:11:36.001Z,3.00
2018-04-24T05:14:39.317Z,3.30
2018-04-24T05:17:42.592Z,3.13
2018-04-24T05:20:46.707Z,2.30
2018-04-24T05:23:50.858Z,2.87
2018-04-24T05:26:54.135Z,3.30
2018-04-24T05:29:57.396Z,3.90
2018-04-24T05:33:00.695Z,3.37
2018-04-24T05:36:03.985Z,3.50
2018-04-24T05:39:07.258Z,2.77
2018-04-24T05:42:11.636Z,3.40
2018-04-24T05:45:15.707Z,3.10
2018-04-24T05:48:19.014Z,3.00
2018-04-24T05:51:22.269Z,2.60
2018-04-24T05:54:25.606Z,2.33
2018-04-24T05:57:28.887Z,2.20
2018-04-24T06:00:32.195Z,2.13
2018-04-24T06:03:35.466Z,2.10
2018-04-24T06:06:38.726Z,2.27
2018-04-24T06:09:42.762Z,1.97
2018-04-24T06:12:46.018Z,2.23
2018-04-24T06:15:49.298Z,2.33
2018-04-24T06:18:52.581Z,2.10
2018-04-24T06:21:55.838Z,2.40
2018-04-24T06:24:59.858Z,2.10
2018-04-24T06:28:03.887Z,2.53
2018-04-24T06:31:07.150Z,2.17
2018-04-24T06:34:11.091Z,3.07
2018-04-24T06:37:15.231Z,2.90
2018-04-24T06:40:18.528Z,2.57
2018-04-24T06:43:21.803Z,3.00
2018-04-24T06:46:25.836Z,3.30
2018-04-24T06:49:29.097Z,3.57
2018-04-24T06:52:33.130Z,3.73
2018-04-24T06:55:36.411Z,2.90
2018-04-24T06:58:39.683Z,4.03
2018-04-24T07:01:42.937Z,3.23
2018-04-24T07:04:47.220Z,3.42
2018-04-24T07:07:50.487Z,4.13
2018-04-24T07:10:53.815Z,3.37
2018-04-24T07:13:57.105Z,4.03
2018-04-24T07:17:00.379Z,3.27
2018-04-24T07:20:03.678Z,3.37
2018-04-24T07:23:07.014Z,3.90
2018-04-24T07:26:10.299Z,3.83
2018-04-24T07:29:13.579Z,3.53
2018-04-24T07:32:16.842Z,3.50
2018-04-24T07:35:20.153Z,3.33
2018-04-24T07:38:23.444Z,3.70
2018-04-24T07:41:26.710Z,4.13
2018-04-24T07:44:29.992Z,4.00
2018-04-24T07:47:34.075Z,4.53
2018-04-24T07:50:37.545Z,4.47
2018-04-24T07:53:41.078Z,4.13
2018-04-24T07:56:44.376Z,4.30
2018-04-24T07:59:47.637Z,4.63
2018-04-24T08:02:50.951Z,3.53
2018-04-24T08:05:54.231Z,3.63
2018-04-24T08:08:57.506Z,4.30
2018-04-24T08:12:01.540Z,3.67
2018-04-24T08:15:04.962Z,4.20
2018-04-24T08:18:08.250Z,3.70
2018-04-24T08:21:11.557Z,4.13
2018-04-24T08:24:14.810Z,3.70
2018-04-24T08:27:18.865Z,3.93
2018-04-24T08:30:22.138Z,4.30
2018-04-24T08:33:26.452Z,3.47
2018-04-24T08:36:30.490Z,3.47
2018-04-24T08:39:33.767Z,3.63
2018-04-24T08:42:37.795Z,3.63
2018-04-24T08:45:41.949Z,3.13
2018-04-24T08:48:45.990Z,3.97
2018-04-24T08:51:49.262Z,3.60
2018-04-24T08:54:53.286Z,3.43
2018-04-24T08:57:56.762Z,4.00
2018-04-24T09:01:00.013Z,4.27
2018-04-24T09:04:04.127Z,3.60
2018-04-24T09:07:08.167Z,3.73
2018-04-24T09:10:11.437Z,2.65
2018-04-24T09:13:14.723Z,2.70
2018-04-24T09:16:18.927Z,2.80
2018-04-24T09:19:22.202Z,2.90
2018-04-24T09:22:25.484Z,2.37
2018-04-24T09:25:28.751Z,2.93
2018-04-24T09:28:32.801Z,2.20
2018-04-24T09:31:41.619Z,2.20
2018-04-24T09:34:44.894Z,2.27
2018-04-24T09:37:49.018Z,2.80
2018-04-24T09:40:53.047Z,2.60
2018-04-24T09:43:56.333Z,2.27
2018-04-24T09:47:00.368Z,2.67
2018-04-24T09:50:03.681Z,1.97
2018-04-24T09:53:06.950Z,2.27
2018-04-24T09:56:10.209Z,2.13
2018-04-24T09:59:13.665Z,2.20
2018-04-24T10:02:17.345Z,1.87
2018-04-24T10:05:20.867Z,2.37
2018-04-24T10:08:24.146Z,1.80
2018-04-24T10:11:28.291Z,1.97
2018-04-24T10:14:31.582Z,2.03
2018-04-24T10:17:34.867Z,1.70
2018-04-24T10:20:38.137Z,1.80
2018-04-24T10:23:42.178Z,1.63
2018-04-24T10:26:45.431Z,2.23
2018-04-24T10:29:48.695Z,1.77
2018-04-24T10:32:52.003Z,1.73
2018-04-24T10:35:56.041Z,1.83
2018-04-24T10:38:59.318Z,1.50
2018-04-24T10:42:02.571Z,1.40
2018-04-24T10:45:05.842Z,1.40
2018-04-24T10:48:09.215Z,1.70
2018-04-24T10:51:12.468Z,2.10
2018-04-24T10:54:15.872Z,1.30
2018-04-24T10:57:19.125Z,1.43
2018-04-24T11:00:22.395Z,1.50
2018-04-24T11:03:25.651Z,1.50
2018-04-24T11:06:29.689Z,1.20
2018-04-24T11:09:33.009Z,1.50
2018-04-24T11:12:36.269Z,1.60
2018-04-24T11:15:39.601Z,1.57
2018-04-24T11:18:43.713Z,2.03
2018-04-24T11:21:46.978Z,1.50
2018-04-24T11:24:50.249Z,1.40
2018-04-24T11:27:53.513Z,1.73
2018-04-24T11:30:56.799Z,1.43
2018-04-24T11:34:00.064Z,1.73
2018-04-24T11:37:04.111Z,1.57
2018-04-24T11:40:07.691Z,2.28
2018-04-24T11:43:10.986Z,1.10
2018-04-24T11:46:15.017Z,1.40
2018-04-24T11:49:19.721Z,1.87
2018-04-24T11:52:23.746Z,1.60
2018-04-24T11:55:27.779Z,1.60
2018-04-24T11:58:31.085Z,1.77
2018-04-24T12:01:34.374Z,1.40
2018-04-24T12:04:37.642Z,1.17
2018-04-24T12:07:41.655Z,1.67
2018-04-24T12:10:45.678Z,1.30
2018-04-24T12:13:49.703Z,1.13
2018-04-24T12:16:52.954Z,1.27
2018-04-24T12:19:56.223Z,1.20
2018-04-24T12:22:59.707Z,1.30
2018-04-24T12:26:02.971Z,1.03
2018-04-24T12:29:07.001Z,1.10
2018-04-24T12:32:11.053Z,1.13
2018-04-24T12:35:14.347Z,1.20
2018-04-24T12:38:17.617Z,1.30
2018-04-24T12:41:20.924Z,1.40
2018-04-24T12:44:24.197Z,1.37
2018-04-24T12:47:28.229Z,1.43
2018-04-24T12:50:31.486Z,1.00
2018-04-24T12:53:34.871Z,1.20
2018-04-24T12:56:38.136Z,0.90
2018-04-24T12:59:41.461Z,1.10
2018-04-24T13:02:44.732Z,1.20
2018-04-24T13:05:48.058Z,1.00
2018-04-24T13:08:51.334Z,1.05
2018-04-24T13:11:54.618Z,1.10
2018-04-24T13:14:58.742Z,1.10
2018-04-24T13:18:02.760Z,1.07
2018-04-24T13:21:07.951Z,1.27
2018-04-24T13:24:11.391Z,1.23
2018-04-24T13:27:15.520Z,0.83
2018-04-24T13:30:18.778Z,0.80
2018-04-24T13:33:22.842Z,0.90
2018-04-24T13:36:26.121Z,0.80
2018-04-24T13:39:30.146Z,1.40
2018-04-24T13:42:33.479Z,1.30
2018-04-24T13:45:36.758Z,0.93
2018-04-24T13:48:40.063Z,0.70
2018-04-24T13:51:43.360Z,1.03
2018-04-24T13:54:46.632Z,1.17
2018-04-24T13:57:51.868Z,0.70
2018-04-24T14:00:55.424Z,0.80
2018-04-24T14:03:59.794Z,1.10
2018-04-24T14:07:04.125Z,0.90
2018-04-24T14:10:07.450Z,0.93
2018-04-24T14:13:10.733Z,0.90
2018-04-24T14:16:14.057Z,1.07
2018-04-24T14:19:17.331Z,1.10
2018-04-24T14:22:20.684Z,1.00
2018-04-24T14:25:23.949Z,0.80
2018-04-24T14:28:27.318Z,1.02
2018-04-24T14:31:31.354Z,0.90
2018-04-24T14:34:34.618Z,0.70
2018-04-24T14:37:38.691Z,1.20
2018-04-24T14:40:42.029Z,1.30
2018-04-24T14:43:46.066Z,0.80
2018-04-24T14:46:50.091Z,1.40
2018-04-24T14:49:53.903Z,1.20
2018-04-24T14:52:57.194Z,1.17
2018-04-24T14:56:00.474Z,1.80
2018-04-24T14:59:04.595Z,1.03
2018-04-24T15:02:08.643Z,0.77
2018-04-24T15:05:11.907Z,1.10
2018-04-24T15:08:16.261Z,1.00
2018-04-24T15:11:20.388Z,0.87
2018-04-24T15:14:23.779Z,0.97
2018-04-24T15:17:27.154Z,1.30
2018-04-24T15:20:30.456Z,0.88
2018-04-24T15:23:34.609Z,0.67
2018-04-24T15:26:38.023Z,1.50
2018-04-24T15:29:41.456Z,1.07
2018-04-24T15:32:45.485Z,0.60
2018-04-24T15:35:48.741Z,0.70
2018-04-24T15:38:52.794Z,1.00
2018-04-24T15:41:56.066Z,0.90
2018-04-24T15:44:59.324Z,1.42
2018-04-24T15:48:02.646Z,0.70
2018-04-24T15:51:05.919Z,0.67
2018-04-24T15:54:09.277Z,1.00
2018-04-24T15:57:13.545Z,0.80
2018-04-24T16:00:16.804Z,0.83
2018-04-24T16:03:20.194Z,0.70
2018-04-24T16:06:24.671Z,0.73
2018-04-24T16:09:27.970Z,0.70
2018-04-24T16:12:31.233Z,0.90
2018-04-24T16:15:34.535Z,0.80
2018-04-24T16:18:37.818Z,0.90
2018-04-24T16:21:41.329Z,0.97
2018-04-24T16:24:44.703Z,0.90
2018-04-24T16:27:48.733Z,1.20
2018-04-24T16:30:52.250Z,1.00
2018-04-24T16:33:55.844Z,0.73
2018-04-24T16:36:59.193Z,1.10
2018-04-24T16:40:03.252Z,0.60
2018-04-24T16:43:07.282Z,0.87
2018-04-24T16:46:10.716Z,1.03
2018-04-24T16:49:14.001Z,0.93
2018-04-24T16:52:17.332Z,0.97
2018-04-24T16:55:20.603Z,1.20
2018-04-24T16:58:23.901Z,0.90
2018-04-24T17:01:27.154Z,0.90
2018-04-24T17:04:31.302Z,1.00
2018-04-24T17:07:34.670Z,0.97
2018-04-24T17:10:38.717Z,1.00
2018-04-24T17:13:42.174Z,1.60
2018-04-24T17:16:46.216Z,1.47
2018-04-24T17:19:49.546Z,1.20
2018-04-24T17:22:53.105Z,1.10
2018-04-24T17:25:58.202Z,1.27
2018-04-24T17:29:02.303Z,0.90
2018-04-24T17:32:05.647Z,1.00
2018-04-24T17:35:09.933Z,1.33
2018-04-24T17:38:13.256Z,0.90
2018-04-24T17:41:16.545Z,1.17
2018-04-24T17:44:20.044Z,0.93
2018-04-24T17:47:23.471Z,0.80
2018-04-24T17:50:26.760Z,1.30
2018-04-24T17:53:30.171Z,0.97
2018-04-24T17:56:34.218Z,0.90
2018-04-24T17:59:51.222Z,1.07
2018-04-24T18:02:55.509Z,0.98
2018-04-24T18:06:06.348Z,1.07
2018-04-24T18:09:09.792Z,1.27
2018-04-24T18:12:13.887Z,0.90
2018-04-24T18:15:17.207Z,0.90
2018-04-24T18:18:20.533Z,0.80
2018-04-24T18:21:24.614Z,1.17
2018-04-24T18:24:27.934Z,1.30
2018-04-24T18:27:32.000Z,1.10
2018-04-24T18:30:35.279Z,1.00
2018-04-24T18:33:39.303Z,1.60
2018-04-24T18:36:42.582Z,1.10
2018-04-24T18:39:46.942Z,2.23
2018-04-24T18:42:50.273Z,2.30
2018-04-24T18:45:54.302Z,2.12
2018-04-24T18:48:57.560Z,2.10
2018-04-24T18:52:00.810Z,1.63
2018-04-24T18:55:04.844Z,1.50
2018-04-24T18:58:08.153Z,1.83
2018-04-24T19:01:11.430Z,1.73
2018-04-24T19:04:14.743Z,1.40
2018-04-24T19:07:18.016Z,1.37
2018-04-24T19:10:22.298Z,1.50
2018-04-24T19:13:25.653Z,1.10
2018-04-24T19:16:28.959Z,1.20
2018-04-24T19:19:33.031Z,1.40
2018-04-24T19:22:38.209Z,1.50
2018-04-24T19:25:43.333Z,1.67
2018-04-24T19:28:47.154Z,1.30
2018-04-24T19:31:55.792Z,2.03
2018-04-24T19:34:59.216Z,1.87
2018-04-24T19:38:03.280Z,1.27
2018-04-24T19:41:12.861Z,1.20
2018-04-24T19:44:16.116Z,1.60
2018-04-24T19:47:21.062Z,1.13
2018-04-24T19:50:25.299Z,1.60
2018-04-24T19:53:28.623Z,1.63
2018-04-24T19:56:31.874Z,1.97
2018-04-24T19:59:45.456Z,1.83
2018-04-24T20:02:48.787Z,1.60
2018-04-24T20:05:52.841Z,2.00
2018-04-24T20:08:56.106Z,1.40
2018-04-24T20:11:59.776Z,1.90
2018-04-24T20:15:03.093Z,1.50
2018-04-24T20:18:06.356Z,1.50
2018-04-24T20:21:09.662Z,1.20
2018-04-24T20:24:12.933Z,1.60
2018-04-24T20:27:16.195Z,1.47
2018-04-24T20:30:19.476Z,1.60
2018-04-24T20:33:22.729Z,1.80
2018-04-24T20:36:26.014Z,1.40
2018-04-24T20:39:29.296Z,1.50
2018-04-24T20:42:32.585Z,1.70
2018-04-24T20:45:35.857Z,1.53
2018-04-24T20:48:39.123Z,1.33
2018-04-24T20:51:43.187Z,1.40
2018-04-24T20:54:46.547Z,1.62
2018-04-24T20:57:49.817Z,1.50
2018-04-24T21:00:53.076Z,1.80
2018-04-24T21:03:56.437Z,1.40
2018-04-24T21:07:00.485Z,1.50
2018-04-24T21:10:03.891Z,1.63
2018-04-24T21:13:07.256Z,1.47
2018-04-24T21:16:10.457Z,1.60
2018-04-24T21:19:13.725Z,1.30
2018-04-24T21:22:16.996Z,1.70
2018-04-24T21:25:20.319Z,1.20
2018-04-24T21:28:23.571Z,1.53
2018-04-24T21:31:26.853Z,1.40
2018-04-24T21:34:30.882Z,1.30
2018-04-24T21:37:34.133Z,1.40
2018-04-24T21:40:37.398Z,1.60
2018-04-24T21:43:40.668Z,1.60
2018-04-24T21:46:43.929Z,1.50
2018-04-24T21:49:47.185Z,1.57
2018-04-24T21:52:50.514Z,1.10
2018-04-24T21:55:53.816Z,1.40
2018-04-24T21:58:57.079Z,1.30
2018-04-24T22:02:00.359Z,1.50
2018-04-24T22:05:03.638Z,1.50
2018-04-24T22:08:08.341Z,1.17
2018-04-24T22:11:11.603Z,1.40
2018-04-24T22:14:14.867Z,1.40
2018-04-24T22:17:18.903Z,1.30
2018-04-24T22:20:22.163Z,1.67
2018-04-24T22:23:26.666Z,1.30
2018-04-24T22:26:29.938Z,1.27
2018-04-24T22:29:33.356Z,1.70
2018-04-24T22:32:36.611Z,1.80
2018-04-24T22:35:39.951Z,1.20
2018-04-24T22:38:43.208Z,1.37
2018-04-24T22:41:46.529Z,1.37
2018-04-24T22:44:49.722Z,1.33
2018-04-24T22:47:52.973Z,1.40
2018-04-24T22:50:56.995Z,1.10
2018-04-24T22:54:01.076Z,1.30
2018-04-24T22:57:04.336Z,1.13
2018-04-24T23:00:08.474Z,1.50
2018-04-24T23:03:11.831Z,1.70
2018-04-24T23:06:15.134Z,1.50
2018-04-24T23:09:18.392Z,1.30
2018-04-24T23:12:39.510Z,1.87
2018-04-24T23:16:00.270Z,1.63
2018-04-24T23:19:21.247Z,1.40
2018-04-24T23:22:30.019Z,1.40
2018-04-24T23:25:33.277Z,1.10
2018-04-24T23:28:37.299Z,1.63
2018-04-24T23:31:40.589Z,1.47
2018-04-24T23:34:44.611Z,1.50
2018-04-24T23:37:48.626Z,1.50
2018-04-24T23:40:52.691Z,1.33
2018-04-24T23:43:55.947Z,1.53
2018-04-24T23:46:59.256Z,1.80
2018-04-24T23:50:02.523Z,2.08
2018-04-24T23:53:06.549Z,1.37
2018-04-24T23:56:10.577Z,1.43
2018-04-24T23:59:13.846Z,1.37
